sensor_id;sensor_type;location;lat;lon;timestamp;temperature;humidity
59505;DHT22;45321;53.200;5.814;2023-03-18T00:02:03;13.80;71.70
59505;DHT22;45321;53.200;5.814;2023-03-18T00:04:29;13.70;71.60
59505;DHT22;45321;53.200;5.814;2023-03-18T00:06:56;13.70;71.50
59505;DHT22;45321;53.200;5.814;2023-03-18T00:09:22;13.60;71.40
59505;DHT22;45321;53.200;5.814;2023-03-18T00:11:48;13.60;71.60
59505;DHT22;45321;53.200;5.814;2023-03-18T00:14:14;13.60;71.80
59505;DHT22;45321;53.200;5.814;2023-03-18T00:16:40;13.60;71.70
59505;DHT22;45321;53.200;5.814;2023-03-18T00:19:06;13.50;72.00
59505;DHT22;45321;53.200;5.814;2023-03-18T00:21:32;13.50;71.90
59505;DHT22;45321;53.200;5.814;2023-03-18T00:23:59;13.50;72.10
59505;DHT22;45321;53.200;5.814;2023-03-18T00:26:26;13.40;72.00
59505;DHT22;45321;53.200;5.814;2023-03-18T00:28:54;13.30;72.10
59505;DHT22;45321;53.200;5.814;2023-03-18T00:31:20;13.30;72.50
59505;DHT22;45321;53.200;5.814;2023-03-18T00:33:49;13.30;72.50
59505;DHT22;45321;53.200;5.814;2023-03-18T00:36:15;13.30;72.50
59505;DHT22;45321;53.200;5.814;2023-03-18T00:38:45;13.30;72.60
59505;DHT22;45321;53.200;5.814;2023-03-18T00:41:11;13.20;72.70
59505;DHT22;45321;53.200;5.814;2023-03-18T00:43:45;13.20;73.00
59505;DHT22;45321;53.200;5.814;2023-03-18T00:46:20;13.00;73.00
59505;DHT22;45321;53.200;5.814;2023-03-18T00:48:46;13.00;73.30
59505;DHT22;45321;53.200;5.814;2023-03-18T00:51:13;12.90;73.50
59505;DHT22;45321;53.200;5.814;2023-03-18T00:53:47;12.80;73.70
59505;DHT22;45321;53.200;5.814;2023-03-18T00:56:15;12.80;73.80
59505;DHT22;45321;53.200;5.814;2023-03-18T00:58:43;12.80;74.00
59505;DHT22;45321;53.200;5.814;2023-03-18T01:01:09;12.70;73.90
59505;DHT22;45321;53.200;5.814;2023-03-18T01:03:37;12.70;73.80
59505;DHT22;45321;53.200;5.814;2023-03-18T01:06:04;12.70;74.00
59505;DHT22;45321;53.200;5.814;2023-03-18T01:08:30;12.60;74.10
59505;DHT22;45321;53.200;5.814;2023-03-18T01:10:56;12.40;74.30
59505;DHT22;45321;53.200;5.814;2023-03-18T01:13:22;12.30;74.70
59505;DHT22;45321;53.200;5.814;2023-03-18T01:15:50;12.30;74.70
59505;DHT22;45321;53.200;5.814;2023-03-18T01:18:17;12.20;74.80
59505;DHT22;45321;53.200;5.814;2023-03-18T01:20:43;12.20;74.90
59505;DHT22;45321;53.200;5.814;2023-03-18T01:23:10;12.10;75.00
59505;DHT22;45321;53.200;5.814;2023-03-18T01:25:37;12.10;75.20
59505;DHT22;45321;53.200;5.814;2023-03-18T01:28:04;12.10;75.10
59505;DHT22;45321;53.200;5.814;2023-03-18T01:30:31;12.00;75.20
59505;DHT22;45321;53.200;5.814;2023-03-18T01:33:00;11.90;75.50
59505;DHT22;45321;53.200;5.814;2023-03-18T01:35:26;11.80;75.50
59505;DHT22;45321;53.200;5.814;2023-03-18T01:37:52;11.80;75.80
59505;DHT22;45321;53.200;5.814;2023-03-18T01:40:19;11.80;75.90
59505;DHT22;45321;53.200;5.814;2023-03-18T01:42:56;11.80;75.70
59505;DHT22;45321;53.200;5.814;2023-03-18T01:45:27;11.80;75.80
59505;DHT22;45321;53.200;5.814;2023-03-18T01:47:54;11.80;75.80
59505;DHT22;45321;53.200;5.814;2023-03-18T01:50:27;11.80;76.00
59505;DHT22;45321;53.200;5.814;2023-03-18T01:53:02;11.80;75.60
59505;DHT22;45321;53.200;5.814;2023-03-18T01:55:29;11.70;75.70
59505;DHT22;45321;53.200;5.814;2023-03-18T01:57:56;11.70;75.80
59505;DHT22;45321;53.200;5.814;2023-03-18T02:00:23;11.70;75.70
59505;DHT22;45321;53.200;5.814;2023-03-18T02:02:51;11.60;76.00
59505;DHT22;45321;53.200;5.814;2023-03-18T02:05:21;11.50;76.00
59505;DHT22;45321;53.200;5.814;2023-03-18T02:07:47;11.60;75.90
59505;DHT22;45321;53.200;5.814;2023-03-18T02:10:18;11.40;76.00
59505;DHT22;45321;53.200;5.814;2023-03-18T02:12:49;11.30;76.10
59505;DHT22;45321;53.200;5.814;2023-03-18T02:15:18;11.30;76.30
59505;DHT22;45321;53.200;5.814;2023-03-18T02:18:13;11.20;76.50
59505;DHT22;45321;53.200;5.814;2023-03-18T02:26:31;11.00;77.20
59505;DHT22;45321;53.200;5.814;2023-03-18T02:29:00;11.00;76.80
59505;DHT22;45321;53.200;5.814;2023-03-18T02:31:28;11.00;76.90
59505;DHT22;45321;53.200;5.814;2023-03-18T02:33:55;11.00;76.80
59505;DHT22;45321;53.200;5.814;2023-03-18T02:36:25;11.00;77.20
59505;DHT22;45321;53.200;5.814;2023-03-18T02:38:53;10.80;77.00
59505;DHT22;45321;53.200;5.814;2023-03-18T02:41:22;10.80;77.10
59505;DHT22;45321;53.200;5.814;2023-03-18T02:43:49;10.80;77.20
59505;DHT22;45321;53.200;5.814;2023-03-18T02:49:01;10.70;77.40
59505;DHT22;45321;53.200;5.814;2023-03-18T02:51:28;10.70;77.30
59505;DHT22;45321;53.200;5.814;2023-03-18T02:54:07;10.60;77.60
59505;DHT22;45321;53.200;5.814;2023-03-18T02:56:35;10.50;77.50
59505;DHT22;45321;53.200;5.814;2023-03-18T02:59:01;10.50;77.60
59505;DHT22;45321;53.200;5.814;2023-03-18T03:01:27;10.40;77.70
59505;DHT22;45321;53.200;5.814;2023-03-18T03:03:53;10.40;77.80
59505;DHT22;45321;53.200;5.814;2023-03-18T03:06:19;10.30;77.80
59505;DHT22;45321;53.200;5.814;2023-03-18T03:08:45;10.30;77.70
59505;DHT22;45321;53.200;5.814;2023-03-18T03:11:11;10.30;78.10
59505;DHT22;45321;53.200;5.814;2023-03-18T03:13:39;10.20;78.50
59505;DHT22;45321;53.200;5.814;2023-03-18T03:16:05;10.20;78.30
59505;DHT22;45321;53.200;5.814;2023-03-18T03:18:31;10.20;78.20
59505;DHT22;45321;53.200;5.814;2023-03-18T03:20:57;10.10;78.20
59505;DHT22;45321;53.200;5.814;2023-03-18T03:23:23;10.10;78.20
59505;DHT22;45321;53.200;5.814;2023-03-18T03:25:49;10.10;78.30
59505;DHT22;45321;53.200;5.814;2023-03-18T03:28:15;10.00;78.60
59505;DHT22;45321;53.200;5.814;2023-03-18T03:30:41;10.00;79.00
59505;DHT22;45321;53.200;5.814;2023-03-18T03:33:08;10.00;78.50
59505;DHT22;45321;53.200;5.814;2023-03-18T03:35:34;10.00;78.50
59505;DHT22;45321;53.200;5.814;2023-03-18T03:38:00;9.90;78.50
59505;DHT22;45321;53.200;5.814;2023-03-18T03:40:26;9.90;78.50
59505;DHT22;45321;53.200;5.814;2023-03-18T03:42:52;9.80;78.60
59505;DHT22;45321;53.200;5.814;2023-03-18T03:45:18;9.70;78.80
59505;DHT22;45321;53.200;5.814;2023-03-18T03:47:45;9.70;79.00
59505;DHT22;45321;53.200;5.814;2023-03-18T03:50:12;9.60;79.10
59505;DHT22;45321;53.200;5.814;2023-03-18T03:52:38;9.50;79.20
59505;DHT22;45321;53.200;5.814;2023-03-18T03:55:06;9.40;79.50
59505;DHT22;45321;53.200;5.814;2023-03-18T03:57:33;9.40;79.60
59505;DHT22;45321;53.200;5.814;2023-03-18T04:00:00;9.30;79.80
59505;DHT22;45321;53.200;5.814;2023-03-18T04:02:26;9.30;79.70
59505;DHT22;45321;53.200;5.814;2023-03-18T04:04:52;9.10;80.00
59505;DHT22;45321;53.200;5.814;2023-03-18T04:07:18;9.10;80.50
59505;DHT22;45321;53.200;5.814;2023-03-18T04:09:44;9.10;81.40
59505;DHT22;45321;53.200;5.814;2023-03-18T04:12:11;9.10;81.10
59505;DHT22;45321;53.200;5.814;2023-03-18T04:14:37;9.10;81.10
59505;DHT22;45321;53.200;5.814;2023-03-18T04:17:03;9.10;81.60
59505;DHT22;45321;53.200;5.814;2023-03-18T04:19:29;9.20;82.00
59505;DHT22;45321;53.200;5.814;2023-03-18T04:21:55;9.20;82.00
59505;DHT22;45321;53.200;5.814;2023-03-18T04:24:21;9.20;81.90
59505;DHT22;45321;53.200;5.814;2023-03-18T04:26:48;9.30;82.00
59505;DHT22;45321;53.200;5.814;2023-03-18T04:29:14;9.30;82.20
59505;DHT22;45321;53.200;5.814;2023-03-18T04:31:40;9.30;81.90
59505;DHT22;45321;53.200;5.814;2023-03-18T04:34:06;9.30;82.20
59505;DHT22;45321;53.200;5.814;2023-03-18T04:36:32;9.40;82.30
59505;DHT22;45321;53.200;5.814;2023-03-18T04:38:58;9.30;82.40
59505;DHT22;45321;53.200;5.814;2023-03-18T04:41:24;9.30;82.90
59505;DHT22;45321;53.200;5.814;2023-03-18T04:43:50;9.30;83.20
59505;DHT22;45321;53.200;5.814;2023-03-18T04:46:16;9.30;83.60
59505;DHT22;45321;53.200;5.814;2023-03-18T04:48:42;9.30;83.30
59505;DHT22;45321;53.200;5.814;2023-03-18T04:51:08;9.30;83.50
59505;DHT22;45321;53.200;5.814;2023-03-18T04:53:37;9.30;83.80
59505;DHT22;45321;53.200;5.814;2023-03-18T04:56:04;9.30;84.20
59505;DHT22;45321;53.200;5.814;2023-03-18T04:58:30;9.20;83.90
59505;DHT22;45321;53.200;5.814;2023-03-18T05:00:56;9.20;84.20
59505;DHT22;45321;53.200;5.814;2023-03-18T05:03:22;9.20;84.20
59505;DHT22;45321;53.200;5.814;2023-03-18T05:05:48;9.20;84.30
59505;DHT22;45321;53.200;5.814;2023-03-18T05:08:14;9.30;84.80
59505;DHT22;45321;53.200;5.814;2023-03-18T05:10:41;9.30;84.90
59505;DHT22;45321;53.200;5.814;2023-03-18T05:13:07;9.30;85.10
59505;DHT22;45321;53.200;5.814;2023-03-18T05:15:34;9.30;85.10
59505;DHT22;45321;53.200;5.814;2023-03-18T05:18:00;9.30;85.00
59505;DHT22;45321;53.200;5.814;2023-03-18T05:20:26;9.30;85.10
59505;DHT22;45321;53.200;5.814;2023-03-18T05:22:52;9.40;85.20
59505;DHT22;45321;53.200;5.814;2023-03-18T05:25:19;9.30;85.60
59505;DHT22;45321;53.200;5.814;2023-03-18T05:27:46;9.40;85.40
59505;DHT22;45321;53.200;5.814;2023-03-18T05:30:12;9.40;85.70
59505;DHT22;45321;53.200;5.814;2023-03-18T05:32:40;9.40;85.60
59505;DHT22;45321;53.200;5.814;2023-03-18T05:35:07;9.30;85.80
59505;DHT22;45321;53.200;5.814;2023-03-18T05:37:34;9.30;86.30
59505;DHT22;45321;53.200;5.814;2023-03-18T05:40:00;9.40;86.60
59505;DHT22;45321;53.200;5.814;2023-03-18T05:42:26;9.40;86.30
59505;DHT22;45321;53.200;5.814;2023-03-18T05:44:52;9.40;87.50
59505;DHT22;45321;53.200;5.814;2023-03-18T05:47:20;9.50;86.50
59505;DHT22;45321;53.200;5.814;2023-03-18T05:49:46;9.50;86.60
59505;DHT22;45321;53.200;5.814;2023-03-18T05:52:13;9.50;86.90
59505;DHT22;45321;53.200;5.814;2023-03-18T05:54:40;9.60;86.60
59505;DHT22;45321;53.200;5.814;2023-03-18T05:57:07;9.60;86.30
59505;DHT22;45321;53.200;5.814;2023-03-18T05:59:33;9.60;86.60
59505;DHT22;45321;53.200;5.814;2023-03-18T06:01:59;9.50;86.60
59505;DHT22;45321;53.200;5.814;2023-03-18T06:04:25;9.50;86.80
59505;DHT22;45321;53.200;5.814;2023-03-18T06:06:52;9.60;86.70
59505;DHT22;45321;53.200;5.814;2023-03-18T06:09:18;9.60;86.50
59505;DHT22;45321;53.200;5.814;2023-03-18T06:11:43;9.60;86.30
59505;DHT22;45321;53.200;5.814;2023-03-18T06:14:10;9.70;86.60
59505;DHT22;45321;53.200;5.814;2023-03-18T06:16:37;9.70;86.60
59505;DHT22;45321;53.200;5.814;2023-03-18T06:19:03;9.70;86.50
59505;DHT22;45321;53.200;5.814;2023-03-18T06:21:29;9.70;86.40
59505;DHT22;45321;53.200;5.814;2023-03-18T06:23:57;9.70;86.40
59505;DHT22;45321;53.200;5.814;2023-03-18T06:26:23;9.70;86.40
59505;DHT22;45321;53.200;5.814;2023-03-18T06:28:49;9.80;87.20
59505;DHT22;45321;53.200;5.814;2023-03-18T06:31:15;9.80;87.50
59505;DHT22;45321;53.200;5.814;2023-03-18T06:33:42;9.80;87.30
59505;DHT22;45321;53.200;5.814;2023-03-18T06:36:08;9.80;86.50
59505;DHT22;45321;53.200;5.814;2023-03-18T06:38:35;9.80;86.40
59505;DHT22;45321;53.200;5.814;2023-03-18T06:41:01;9.90;86.20
59505;DHT22;45321;53.200;5.814;2023-03-18T06:43:26;10.00;86.80
59505;DHT22;45321;53.200;5.814;2023-03-18T06:45:53;10.00;86.70
59505;DHT22;45321;53.200;5.814;2023-03-18T06:48:19;10.00;86.10
59505;DHT22;45321;53.200;5.814;2023-03-18T06:50:45;10.00;86.10
59505;DHT22;45321;53.200;5.814;2023-03-18T06:53:11;10.10;86.70
59505;DHT22;45321;53.200;5.814;2023-03-18T06:55:37;10.10;86.60
59505;DHT22;45321;53.200;5.814;2023-03-18T06:58:03;10.10;86.60
59505;DHT22;45321;53.200;5.814;2023-03-18T07:00:30;10.20;86.50
59505;DHT22;45321;53.200;5.814;2023-03-18T07:02:57;10.20;86.00
59505;DHT22;45321;53.200;5.814;2023-03-18T07:05:22;10.20;86.50
59505;DHT22;45321;53.200;5.814;2023-03-18T07:07:49;10.30;86.00
59505;DHT22;45321;53.200;5.814;2023-03-18T07:10:19;10.30;86.60
59505;DHT22;45321;53.200;5.814;2023-03-18T07:12:47;10.30;86.00
59505;DHT22;45321;53.200;5.814;2023-03-18T07:15:13;10.30;86.00
59505;DHT22;45321;53.200;5.814;2023-03-18T07:17:39;10.30;85.90
59505;DHT22;45321;53.200;5.814;2023-03-18T07:20:05;10.30;85.70
59505;DHT22;45321;53.200;5.814;2023-03-18T07:22:31;10.30;85.80
59505;DHT22;45321;53.200;5.814;2023-03-18T07:24:57;10.30;85.60
59505;DHT22;45321;53.200;5.814;2023-03-18T07:27:23;10.40;85.60
59505;DHT22;45321;53.200;5.814;2023-03-18T07:29:49;10.40;85.50
59505;DHT22;45321;53.200;5.814;2023-03-18T07:32:15;10.40;85.90
59505;DHT22;45321;53.200;5.814;2023-03-18T07:34:43;10.50;85.60
59505;DHT22;45321;53.200;5.814;2023-03-18T07:37:09;10.50;86.00
59505;DHT22;45321;53.200;5.814;2023-03-18T07:39:35;10.60;85.40
59505;DHT22;45321;53.200;5.814;2023-03-18T07:42:01;10.70;85.80
59505;DHT22;45321;53.200;5.814;2023-03-18T07:44:27;10.80;85.60
59505;DHT22;45321;53.200;5.814;2023-03-18T07:46:53;10.80;85.70
59505;DHT22;45321;53.200;5.814;2023-03-18T07:49:20;11.00;85.20
59505;DHT22;45321;53.200;5.814;2023-03-18T07:51:46;11.00;85.40
59505;DHT22;45321;53.200;5.814;2023-03-18T07:54:11;11.10;84.90
59505;DHT22;45321;53.200;5.814;2023-03-18T07:56:38;11.10;85.20
59505;DHT22;45321;53.200;5.814;2023-03-18T07:59:04;11.20;84.90
59505;DHT22;45321;53.200;5.814;2023-03-18T08:01:30;11.30;84.80
59505;DHT22;45321;53.200;5.814;2023-03-18T08:03:56;11.30;84.60
59505;DHT22;45321;53.200;5.814;2023-03-18T08:06:22;11.30;84.90
59505;DHT22;45321;53.200;5.814;2023-03-18T08:08:48;11.30;84.70
59505;DHT22;45321;53.200;5.814;2023-03-18T08:11:14;11.30;84.70
59505;DHT22;45321;53.200;5.814;2023-03-18T08:13:40;11.40;84.70
59505;DHT22;45321;53.200;5.814;2023-03-18T08:16:06;11.40;84.80
59505;DHT22;45321;53.200;5.814;2023-03-18T08:18:35;11.50;84.60
59505;DHT22;45321;53.200;5.814;2023-03-18T08:21:01;11.50;84.30
59505;DHT22;45321;53.200;5.814;2023-03-18T08:23:26;11.50;84.20
59505;DHT22;45321;53.200;5.814;2023-03-18T08:25:52;11.50;84.40
59505;DHT22;45321;53.200;5.814;2023-03-18T08:28:18;11.60;84.20
59505;DHT22;45321;53.200;5.814;2023-03-18T08:30:54;11.50;84.20
59505;DHT22;45321;53.200;5.814;2023-03-18T08:33:21;11.60;84.00
59505;DHT22;45321;53.200;5.814;2023-03-18T08:35:48;11.50;84.10
59505;DHT22;45321;53.200;5.814;2023-03-18T08:38:14;11.60;84.10
59505;DHT22;45321;53.200;5.814;2023-03-18T08:40:40;11.60;84.10
59505;DHT22;45321;53.200;5.814;2023-03-18T08:43:07;11.60;84.20
59505;DHT22;45321;53.200;5.814;2023-03-18T08:45:35;11.60;84.00
59505;DHT22;45321;53.200;5.814;2023-03-18T08:48:01;11.70;84.00
59505;DHT22;45321;53.200;5.814;2023-03-18T08:50:27;11.80;83.70
59505;DHT22;45321;53.200;5.814;2023-03-18T08:52:56;11.80;83.70
59505;DHT22;45321;53.200;5.814;2023-03-18T08:55:27;11.80;83.60
59505;DHT22;45321;53.200;5.814;2023-03-18T08:57:54;11.80;83.40
59505;DHT22;45321;53.200;5.814;2023-03-18T09:00:20;11.90;83.30
59505;DHT22;45321;53.200;5.814;2023-03-18T09:02:46;11.80;83.30
59505;DHT22;45321;53.200;5.814;2023-03-18T09:05:13;11.90;83.30
59505;DHT22;45321;53.200;5.814;2023-03-18T09:07:39;12.00;83.20
59505;DHT22;45321;53.200;5.814;2023-03-18T09:10:05;12.00;83.20
59505;DHT22;45321;53.200;5.814;2023-03-18T09:12:31;12.10;83.10
59505;DHT22;45321;53.200;5.814;2023-03-18T09:14:57;12.20;83.10
59505;DHT22;45321;53.200;5.814;2023-03-18T09:17:23;12.30;82.90
59505;DHT22;45321;53.200;5.814;2023-03-18T09:19:49;12.40;82.60
59505;DHT22;45321;53.200;5.814;2023-03-18T09:22:15;12.40;82.40
59505;DHT22;45321;53.200;5.814;2023-03-18T09:24:42;12.50;82.30
59505;DHT22;45321;53.200;5.814;2023-03-18T09:27:08;12.50;82.30
59505;DHT22;45321;53.200;5.814;2023-03-18T09:29:34;12.50;82.30
59505;DHT22;45321;53.200;5.814;2023-03-18T09:32:00;12.50;82.30
59505;DHT22;45321;53.200;5.814;2023-03-18T09:34:25;12.50;82.20
59505;DHT22;45321;53.200;5.814;2023-03-18T09:36:51;12.50;82.40
59505;DHT22;45321;53.200;5.814;2023-03-18T09:39:18;12.50;82.40
59505;DHT22;45321;53.200;5.814;2023-03-18T09:44:59;12.60;82.60
59505;DHT22;45321;53.200;5.814;2023-03-18T09:53:13;12.80;81.80
59505;DHT22;45321;53.200;5.814;2023-03-18T09:55:44;12.90;81.90
59505;DHT22;45321;53.200;5.814;2023-03-18T10:01:10;13.20;81.40
59505;DHT22;45321;53.200;5.814;2023-03-18T10:06:22;13.40;80.90
59505;DHT22;45321;53.200;5.814;2023-03-18T10:11:32;13.60;80.20
59505;DHT22;45321;53.200;5.814;2023-03-18T10:16:29;13.80;79.60
59505;DHT22;45321;53.200;5.814;2023-03-18T10:18:55;14.00;79.20
59505;DHT22;45321;53.200;5.814;2023-03-18T10:21:43;14.20;78.20
59505;DHT22;45321;53.200;5.814;2023-03-18T10:26:56;14.30;77.50
59505;DHT22;45321;53.200;5.814;2023-03-18T10:29:52;14.40;77.20
59505;DHT22;45321;53.200;5.814;2023-03-18T10:37:59;14.80;74.90
59505;DHT22;45321;53.200;5.814;2023-03-18T10:40:36;15.00;74.50
59505;DHT22;45321;53.200;5.814;2023-03-18T10:43:03;15.00;74.50
59505;DHT22;45321;53.200;5.814;2023-03-18T10:45:33;15.20;74.50
59505;DHT22;45321;53.200;5.814;2023-03-18T10:50:47;15.40;73.20
59505;DHT22;45321;53.200;5.814;2023-03-18T10:53:19;15.50;71.90
59505;DHT22;45321;53.200;5.814;2023-03-18T10:56:08;15.70;70.90
59505;DHT22;45321;53.200;5.814;2023-03-18T10:58:34;15.80;70.80
59505;DHT22;45321;53.200;5.814;2023-03-18T11:01:01;16.00;70.90
59505;DHT22;45321;53.200;5.814;2023-03-18T11:03:30;16.10;69.70
59505;DHT22;45321;53.200;5.814;2023-03-18T11:06:00;16.30;69.00
59505;DHT22;45321;53.200;5.814;2023-03-18T11:08:30;16.50;69.60
59505;DHT22;45321;53.200;5.814;2023-03-18T11:11:13;16.70;68.40
59505;DHT22;45321;53.200;5.814;2023-03-18T11:13:45;16.90;66.70
59505;DHT22;45321;53.200;5.814;2023-03-18T11:16:21;17.10;67.70
59505;DHT22;45321;53.200;5.814;2023-03-18T11:18:49;17.30;65.50
59505;DHT22;45321;53.200;5.814;2023-03-18T11:21:16;17.50;64.90
59505;DHT22;45321;53.200;5.814;2023-03-18T11:23:49;17.50;62.80
59505;DHT22;45321;53.200;5.814;2023-03-18T11:26:52;17.70;63.10
59505;DHT22;45321;53.200;5.814;2023-03-18T11:29:22;17.90;62.30
59505;DHT22;45321;53.200;5.814;2023-03-18T11:31:55;18.20;62.60
59505;DHT22;45321;53.200;5.814;2023-03-18T11:34:24;18.40;60.90
59505;DHT22;45321;53.200;5.814;2023-03-18T11:39:28;19.00;60.30
59505;DHT22;45321;53.200;5.814;2023-03-18T11:41:57;19.20;59.90
59505;DHT22;45321;53.200;5.814;2023-03-18T11:44:30;19.40;57.00
59505;DHT22;45321;53.200;5.814;2023-03-18T11:47:11;19.70;58.40
59505;DHT22;45321;53.200;5.814;2023-03-18T11:49:37;19.90;55.30
59505;DHT22;45321;53.200;5.814;2023-03-18T11:55:53;19.80;58.00
59505;DHT22;45321;53.200;5.814;2023-03-18T11:58:56;19.80;57.50
59505;DHT22;45321;53.200;5.814;2023-03-18T12:12:23;18.70;59.40
59505;DHT22;45321;53.200;5.814;2023-03-18T12:16:04;19.10;58.90
59505;DHT22;45321;53.200;5.814;2023-03-18T12:21:02;19.80;54.60
59505;DHT22;45321;53.200;5.814;2023-03-18T12:24:05;20.00;54.20
59505;DHT22;45321;53.200;5.814;2023-03-18T12:27:05;20.20;52.80
59505;DHT22;45321;53.200;5.814;2023-03-18T12:35:37;20.80;51.90
59505;DHT22;45321;53.200;5.814;2023-03-18T12:46:03;21.20;49.40
59505;DHT22;45321;53.200;5.814;2023-03-18T12:48:36;21.30;49.70
59505;DHT22;45321;53.200;5.814;2023-03-18T12:51:09;21.30;50.30
59505;DHT22;45321;53.200;5.814;2023-03-18T12:53:43;21.20;48.50
59505;DHT22;45321;53.200;5.814;2023-03-18T12:56:21;21.40;49.70
59505;DHT22;45321;53.200;5.814;2023-03-18T12:58:52;21.50;49.80
59505;DHT22;45321;53.200;5.814;2023-03-18T13:04:31;21.70;48.30
59505;DHT22;45321;53.200;5.814;2023-03-18T13:07:04;22.00;48.80
59505;DHT22;45321;53.200;5.814;2023-03-18T13:09:53;22.20;47.00
59505;DHT22;45321;53.200;5.814;2023-03-18T13:12:42;22.60;47.40
59505;DHT22;45321;53.200;5.814;2023-03-18T13:15:39;22.50;47.40
59505;DHT22;45321;53.200;5.814;2023-03-18T13:18:19;22.60;46.80
59505;DHT22;45321;53.200;5.814;2023-03-18T13:20:46;22.70;45.50
59505;DHT22;45321;53.200;5.814;2023-03-18T13:31:53;23.10;44.90
59505;DHT22;45321;53.200;5.814;2023-03-18T13:42:33;21.70;47.00
59505;DHT22;45321;53.200;5.814;2023-03-18T13:47:39;20.90;48.80
59505;DHT22;45321;53.200;5.814;2023-03-18T13:50:34;20.50;49.00
59505;DHT22;45321;53.200;5.814;2023-03-18T13:53:03;20.30;50.90
59505;DHT22;45321;53.200;5.814;2023-03-18T14:03:29;19.50;52.60
59505;DHT22;45321;53.200;5.814;2023-03-18T14:13:50;19.20;54.20
59505;DHT22;45321;53.200;5.814;2023-03-18T14:17:02;19.20;54.50
59505;DHT22;45321;53.200;5.814;2023-03-18T14:19:25;19.20;54.40
59505;DHT22;45321;53.200;5.814;2023-03-18T14:22:27;19.20;54.90
59505;DHT22;45321;53.200;5.814;2023-03-18T14:28:12;18.90;56.30
59505;DHT22;45321;53.200;5.814;2023-03-18T14:30:55;18.80;56.60
59505;DHT22;45321;53.200;5.814;2023-03-18T14:35:56;18.70;57.20
59505;DHT22;45321;53.200;5.814;2023-03-18T14:41:20;18.40;57.60
59505;DHT22;45321;53.200;5.814;2023-03-18T14:46:56;18.30;58.20
59505;DHT22;45321;53.200;5.814;2023-03-18T14:49:31;18.30;58.80
59505;DHT22;45321;53.200;5.814;2023-03-18T14:51:59;18.30;58.70
59505;DHT22;45321;53.200;5.814;2023-03-18T14:54:28;18.40;59.00
59505;DHT22;45321;53.200;5.814;2023-03-18T14:56:55;18.30;59.00
59505;DHT22;45321;53.200;5.814;2023-03-18T14:59:25;18.30;59.50
59505;DHT22;45321;53.200;5.814;2023-03-18T15:01:51;18.40;59.50
59505;DHT22;45321;53.200;5.814;2023-03-18T15:04:23;18.40;59.30
59505;DHT22;45321;53.200;5.814;2023-03-18T15:06:54;18.30;59.00
59505;DHT22;45321;53.200;5.814;2023-03-18T15:09:24;18.30;59.30
59505;DHT22;45321;53.200;5.814;2023-03-18T15:11:52;18.20;59.80
59505;DHT22;45321;53.200;5.814;2023-03-18T15:14:23;18.20;60.20
59505;DHT22;45321;53.200;5.814;2023-03-18T15:16:58;18.20;59.90
59505;DHT22;45321;53.200;5.814;2023-03-18T15:19:26;18.00;59.90
59505;DHT22;45321;53.200;5.814;2023-03-18T15:21:53;18.10;60.30
59505;DHT22;45321;53.200;5.814;2023-03-18T15:24:22;18.10;60.50
59505;DHT22;45321;53.200;5.814;2023-03-18T15:27:12;18.20;60.10
59505;DHT22;45321;53.200;5.814;2023-03-18T15:29:52;18.20;60.10
59505;DHT22;45321;53.200;5.814;2023-03-18T15:32:29;18.10;60.10
59505;DHT22;45321;53.200;5.814;2023-03-18T15:37:38;17.90;61.10
59505;DHT22;45321;53.200;5.814;2023-03-18T15:40:44;17.80;61.60
59505;DHT22;45321;53.200;5.814;2023-03-18T15:45:42;17.70;62.40
59505;DHT22;45321;53.200;5.814;2023-03-18T15:48:32;17.80;62.50
59505;DHT22;45321;53.200;5.814;2023-03-18T15:51:02;17.80;62.60
59505;DHT22;45321;53.200;5.814;2023-03-18T15:53:39;17.80;62.90
59505;DHT22;45321;53.200;5.814;2023-03-18T15:58:41;17.80;63.10
59505;DHT22;45321;53.200;5.814;2023-03-18T16:01:14;17.70;63.20
59505;DHT22;45321;53.200;5.814;2023-03-18T16:03:41;17.70;63.30
59505;DHT22;45321;53.200;5.814;2023-03-18T16:06:08;17.70;63.40
59505;DHT22;45321;53.200;5.814;2023-03-18T16:08:35;17.70;63.90
59505;DHT22;45321;53.200;5.814;2023-03-18T16:11:01;17.60;63.70
59505;DHT22;45321;53.200;5.814;2023-03-18T16:13:31;17.70;63.80
59505;DHT22;45321;53.200;5.814;2023-03-18T16:15:58;17.60;63.60
59505;DHT22;45321;53.200;5.814;2023-03-18T16:18:24;17.60;62.80
59505;DHT22;45321;53.200;5.814;2023-03-18T16:20:50;17.60;62.60
59505;DHT22;45321;53.200;5.814;2023-03-18T16:23:17;17.80;61.70
59505;DHT22;45321;53.200;5.814;2023-03-18T16:25:49;18.10;61.20
59505;DHT22;45321;53.200;5.814;2023-03-18T16:28:24;18.30;60.60
59505;DHT22;45321;53.200;5.814;2023-03-18T16:30:50;18.40;61.00
59505;DHT22;45321;53.200;5.814;2023-03-18T16:33:21;18.60;59.10
59505;DHT22;45321;53.200;5.814;2023-03-18T16:36:01;18.70;59.70
59505;DHT22;45321;53.200;5.814;2023-03-18T16:38:29;18.70;59.50
59505;DHT22;45321;53.200;5.814;2023-03-18T16:40:56;18.60;60.00
59505;DHT22;45321;53.200;5.814;2023-03-18T16:43:28;18.80;59.90
59505;DHT22;45321;53.200;5.814;2023-03-18T16:46:01;19.10;59.50
59505;DHT22;45321;53.200;5.814;2023-03-18T16:48:30;19.40;57.90
59505;DHT22;45321;53.200;5.814;2023-03-18T16:50:56;19.70;58.60
59505;DHT22;45321;53.200;5.814;2023-03-18T16:53:27;20.20;58.00
59505;DHT22;45321;53.200;5.814;2023-03-18T16:56:15;20.40;57.00
59505;DHT22;45321;53.200;5.814;2023-03-18T16:58:42;20.20;56.30
59505;DHT22;45321;53.200;5.814;2023-03-18T17:01:12;20.00;56.20
59505;DHT22;45321;53.200;5.814;2023-03-18T17:03:38;19.80;57.60
59505;DHT22;45321;53.200;5.814;2023-03-18T17:06:04;19.50;57.50
59505;DHT22;45321;53.200;5.814;2023-03-18T17:08:31;19.10;58.10
59505;DHT22;45321;53.200;5.814;2023-03-18T17:10:58;18.80;59.10
59505;DHT22;45321;53.200;5.814;2023-03-18T17:13:28;18.50;59.60
59505;DHT22;45321;53.200;5.814;2023-03-18T17:15:55;18.20;60.50
59505;DHT22;45321;53.200;5.814;2023-03-18T17:18:22;17.90;61.30
59505;DHT22;45321;53.200;5.814;2023-03-18T17:20:49;17.70;61.80
59505;DHT22;45321;53.200;5.814;2023-03-18T17:23:20;17.60;62.20
59505;DHT22;45321;53.200;5.814;2023-03-18T17:25:57;17.60;62.40
59505;DHT22;45321;53.200;5.814;2023-03-18T17:28:38;17.50;62.60
59505;DHT22;45321;53.200;5.814;2023-03-18T17:31:09;17.40;62.80
59505;DHT22;45321;53.200;5.814;2023-03-18T17:33:36;17.40;63.20
59505;DHT22;45321;53.200;5.814;2023-03-18T17:36:03;17.30;63.50
59505;DHT22;45321;53.200;5.814;2023-03-18T17:38:29;17.20;63.70
59505;DHT22;45321;53.200;5.814;2023-03-18T17:40:56;17.10;64.10
59505;DHT22;45321;53.200;5.814;2023-03-18T17:43:31;17.00;64.30
59505;DHT22;45321;53.200;5.814;2023-03-18T17:45:57;17.00;64.50
59505;DHT22;45321;53.200;5.814;2023-03-18T17:48:26;16.90;64.80
59505;DHT22;45321;53.200;5.814;2023-03-18T17:53:35;16.80;65.50
59505;DHT22;45321;53.200;5.814;2023-03-18T17:56:02;16.70;65.70
59505;DHT22;45321;53.200;5.814;2023-03-18T17:58:30;16.60;66.00
59505;DHT22;45321;53.200;5.814;2023-03-18T18:01:11;16.50;66.60
59505;DHT22;45321;53.200;5.814;2023-03-18T18:03:38;16.40;67.10